Route Details

Aircraft Information
Group: North America Fleet
Types: B738, B752, B762, B763
Route Data
Distance: 955nm
Duration: 3h 00m
Origin METAR: KBDL 080051Z 25008KT 10SM BKN023 OVC080 02/M04 A3019 RMK AO2 PRESRR SLP225 T00171044
Dest. METAR: KLAL 080035Z AUTO 09007KT 10SM CLR 20/12 A3026 RMK AO2 T02030120
Freight Data
(for Feb 8, 2023)
Load Factor:
71%
Manifested Cargo: 67,696lbs
Financial History
Total Freight: 32,522lbs
Average Load: 0lbs/flt
Fuel Used: 17,811lbs
Avg. Fuel Used: 0lbs/flt
Fuel Expense: $7,124
Avg. Fuel Expense: $0
Avg. Fuel Cost: $0/lbs
Total Gross Income: $82,931
Pilot Pay: $239
Total Expenses: $16,522
Total Revenue: $58,623
Average Revenue: $0

Capitol Logistics 428




KBDL
Bradley International Airport
Windsor Locks, Connecticut
KLAL
Lakeland Linder Regional Airport
Lakeland, Florida

Activity Log

Date Flight Route Aircraft Duration
07/08/2022 CPX428 CSTL9 CCC DCT EMJAY J174 SAWED Q64 TYI DCT MRPIT Q409 PUPYY DCT KYYUU LUBBR3 B752 2h 46m